createdAt,value
2019-06-20T00:00:38.599Z,995.11
2019-06-20T00:01:38.589Z,995.17
2019-06-20T00:02:38.569Z,995.15
2019-06-20T00:03:38.568Z,995.14
2019-06-20T00:04:38.557Z,995.15
2019-06-20T00:05:38.573Z,995.19
2019-06-20T00:06:38.570Z,995.19
2019-06-20T00:07:38.530Z,995.22
2019-06-20T00:08:38.511Z,995.23
2019-06-20T00:09:38.511Z,995.22
2019-06-20T00:10:38.522Z,995.22
2019-06-20T00:11:38.475Z,995.19
2019-06-20T00:12:38.466Z,995.22
2019-06-20T00:13:38.461Z,995.27
2019-06-20T00:14:38.479Z,995.22
2019-06-20T00:15:38.457Z,995.24
2019-06-20T00:16:38.434Z,995.21
2019-06-20T00:17:38.446Z,995.20
2019-06-20T00:18:38.398Z,995.16
2019-06-20T00:19:38.395Z,995.15
2019-06-20T00:20:38.390Z,995.12
2019-06-20T00:21:38.404Z,995.10
2019-06-20T00:22:38.375Z,995.07
2019-06-20T00:23:38.348Z,995.06
2019-06-20T00:24:38.367Z,995.05
2019-06-20T00:25:38.330Z,995.13
2019-06-20T00:26:38.379Z,995.16
2019-06-20T00:27:38.307Z,995.15
2019-06-20T00:28:38.297Z,995.24
2019-06-20T00:29:38.321Z,995.24
2019-06-20T00:30:38.323Z,995.25
2019-06-20T00:31:38.263Z,995.26
2019-06-20T00:32:38.266Z,995.27
2019-06-20T00:33:38.254Z,995.28
2019-06-20T00:34:38.263Z,995.29
2019-06-20T00:35:38.230Z,995.26
2019-06-20T00:36:38.255Z,995.25
2019-06-20T00:37:38.210Z,995.27
2019-06-20T00:38:38.188Z,995.29
2019-06-20T00:39:38.183Z,995.29
2019-06-20T00:40:38.208Z,995.28
2019-06-20T00:41:38.157Z,995.27
2019-06-20T00:42:38.151Z,995.24
2019-06-20T00:43:38.142Z,995.23
2019-06-20T00:44:38.121Z,995.27
2019-06-20T00:45:38.148Z,995.28
2019-06-20T00:46:38.106Z,995.32
2019-06-20T00:47:38.121Z,995.35
2019-06-20T00:48:38.085Z,995.32
2019-06-20T00:49:38.083Z,995.35
2019-06-20T00:50:38.108Z,995.42
2019-06-20T00:51:38.187Z,995.45
2019-06-20T00:52:38.038Z,995.46
2019-06-20T00:53:38.024Z,995.48
2019-06-20T00:54:38.030Z,995.53
2019-06-20T00:55:38.023Z,995.53
2019-06-20T00:56:38.019Z,995.56
2019-06-20T00:57:38.026Z,995.53
2019-06-20T00:58:37.975Z,995.60
2019-06-20T00:59:38.002Z,995.59
2019-06-20T01:00:37.952Z,995.60
2019-06-20T01:01:37.984Z,995.62
2019-06-20T01:02:37.935Z,995.64
2019-06-20T01:03:38.077Z,995.64
2019-06-20T01:04:37.919Z,995.66
2019-06-20T01:05:37.899Z,995.64
2019-06-20T01:06:37.889Z,995.65
2019-06-20T01:07:37.886Z,995.69
2019-06-20T01:08:37.875Z,995.69
2019-06-20T01:09:37.895Z,995.71
2019-06-20T01:10:37.849Z,995.68
2019-06-20T01:11:37.840Z,995.69
2019-06-20T01:12:37.826Z,995.64
2019-06-20T01:13:37.828Z,995.64
2019-06-20T01:14:37.871Z,995.64
2019-06-20T01:15:37.846Z,995.59
2019-06-20T01:16:37.782Z,995.62
2019-06-20T01:17:37.781Z,995.55
2019-06-20T01:18:37.764Z,995.59
2019-06-20T01:19:37.757Z,995.57
2019-06-20T01:20:37.757Z,995.59
2019-06-20T01:21:37.737Z,995.56
2019-06-20T01:22:37.727Z,995.55
2019-06-20T01:23:37.719Z,995.57
2019-06-20T01:24:37.715Z,995.58
2019-06-20T01:25:37.691Z,995.55
2019-06-20T01:26:37.678Z,995.55
2019-06-20T01:27:37.674Z,995.55
2019-06-20T01:28:37.670Z,995.54
2019-06-20T01:29:37.654Z,995.56
2019-06-20T01:30:37.667Z,995.57
2019-06-20T01:31:37.631Z,995.56
2019-06-20T01:32:37.620Z,995.53
2019-06-20T01:33:37.620Z,995.56
2019-06-20T01:34:37.591Z,995.54
2019-06-20T01:35:37.584Z,995.49
2019-06-20T01:36:37.630Z,995.58
2019-06-20T01:37:37.569Z,995.54
2019-06-20T01:38:37.550Z,995.58
2019-06-20T01:39:37.549Z,995.54
2019-06-20T01:40:37.543Z,995.53
2019-06-20T01:41:37.550Z,995.50
2019-06-20T01:42:37.544Z,995.54
2019-06-20T01:43:50.067Z,995.52
2019-06-20T01:44:37.492Z,995.50
2019-06-20T01:45:37.478Z,995.47
2019-06-20T01:46:37.473Z,995.47
2019-06-20T01:47:37.505Z,995.48
2019-06-20T01:48:37.451Z,995.53
2019-06-20T01:49:37.435Z,995.55
2019-06-20T01:50:37.434Z,995.52
2019-06-20T01:51:37.417Z,995.53
2019-06-20T01:52:37.403Z,995.51
2019-06-20T01:53:37.410Z,995.50
2019-06-20T01:54:37.397Z,995.50
2019-06-20T01:55:37.366Z,995.50
2019-06-20T01:56:37.357Z,995.56
2019-06-20T01:57:37.348Z,995.52
2019-06-20T01:58:37.345Z,995.56
2019-06-20T01:59:37.325Z,995.56
2019-06-20T02:00:37.337Z,995.58
2019-06-20T02:01:37.303Z,995.58
2019-06-20T02:02:37.323Z,995.54
2019-06-20T02:03:37.287Z,995.57
2019-06-20T02:04:37.274Z,995.56
2019-06-20T02:05:37.271Z,995.58
2019-06-20T02:06:37.252Z,995.56
2019-06-20T02:07:37.385Z,995.57
2019-06-20T02:08:37.242Z,995.57
2019-06-20T02:09:37.220Z,995.60
2019-06-20T02:10:37.225Z,995.60
2019-06-20T02:11:37.199Z,995.64
2019-06-20T02:12:37.182Z,995.64
2019-06-20T02:13:37.198Z,995.61
2019-06-20T02:14:37.166Z,995.58
2019-06-20T02:15:37.190Z,995.59
2019-06-20T02:16:37.150Z,995.54
2019-06-20T02:17:37.140Z,995.56
2019-06-20T02:18:37.138Z,995.58
2019-06-20T02:19:37.208Z,995.57
2019-06-20T02:20:37.112Z,995.57
2019-06-20T02:21:37.097Z,995.51
2019-06-20T02:22:37.088Z,995.56
2019-06-20T02:23:37.068Z,995.53
2019-06-20T02:24:37.063Z,995.54
2019-06-20T02:25:37.072Z,995.57
2019-06-20T02:26:37.040Z,995.55
2019-06-20T02:27:37.028Z,995.60
2019-06-20T02:28:37.044Z,995.62
2019-06-20T02:29:37.021Z,995.64
2019-06-20T02:30:37.022Z,995.65
2019-06-20T02:31:37.057Z,995.59
2019-06-20T02:32:36.969Z,995.66
2019-06-20T02:33:36.984Z,995.62
2019-06-20T02:34:36.964Z,995.61
2019-06-20T02:35:36.952Z,995.58
2019-06-20T02:36:36.947Z,995.56
2019-06-20T02:37:36.953Z,995.58
2019-06-20T02:38:36.905Z,995.51
2019-06-20T02:39:36.910Z,995.52
2019-06-20T02:40:36.875Z,995.56
2019-06-20T02:41:36.909Z,995.56
2019-06-20T02:42:36.891Z,995.63
2019-06-20T02:43:36.846Z,995.61
2019-06-20T02:44:36.846Z,995.58
2019-06-20T02:45:36.838Z,995.57
2019-06-20T02:46:36.825Z,995.56
2019-06-20T02:47:36.869Z,995.59
2019-06-20T02:48:36.842Z,995.62
2019-06-20T02:49:36.800Z,995.62
2019-06-20T02:50:36.803Z,995.62
2019-06-20T02:51:36.783Z,995.59
2019-06-20T02:52:36.818Z,995.61
2019-06-20T02:53:36.756Z,995.62
2019-06-20T02:54:36.742Z,995.61
2019-06-20T02:55:36.725Z,995.60
2019-06-20T02:56:36.706Z,995.55
2019-06-20T02:57:36.763Z,995.60
2019-06-20T02:58:36.701Z,995.60
2019-06-20T02:59:36.695Z,995.62
2019-06-20T03:04:13.870Z,995.63
2019-06-20T03:05:12.817Z,995.57
2019-06-20T03:06:14.713Z,995.53
2019-06-20T03:07:13.628Z,995.51
2019-06-20T03:08:37.285Z,995.48
2019-06-20T03:16:13.846Z,995.59
2019-06-20T03:17:14.887Z,995.63
2019-06-20T03:18:13.539Z,995.62
2019-06-20T03:20:45.993Z,995.63
2019-06-20T03:21:45.867Z,995.63
2019-06-20T03:22:45.865Z,995.64
2019-06-20T03:23:47.405Z,995.62
2019-06-20T03:24:49.410Z,995.61
2019-06-20T03:25:44.665Z,995.62
2019-06-20T03:26:47.045Z,995.66
2019-06-20T03:27:45.179Z,995.64
2019-06-20T03:35:01.280Z,995.81
2019-06-20T03:35:42.243Z,995.87
2019-06-20T04:20:56.931Z,996.23
2019-06-20T04:21:57.065Z,996.22
2019-06-20T04:22:56.974Z,996.25
2019-06-20T04:23:56.971Z,996.27
2019-06-20T04:24:56.941Z,996.25
2019-06-20T04:25:56.341Z,996.28
2019-06-20T04:26:55.360Z,996.31
2019-06-20T04:27:56.210Z,996.29
2019-06-20T04:28:55.653Z,996.28
2019-06-20T04:29:55.256Z,996.27
2019-06-20T04:30:55.257Z,996.28
2019-06-20T04:31:55.373Z,996.30
2019-06-20T04:32:55.226Z,996.31
2019-06-20T04:33:55.194Z,996.34
2019-06-20T04:34:55.241Z,996.31
2019-06-20T04:35:55.185Z,996.34
2019-06-20T04:36:55.164Z,996.38
2019-06-20T04:37:55.180Z,996.35
2019-06-20T04:38:55.140Z,996.38
2019-06-20T04:39:55.124Z,996.39
2019-06-20T04:40:55.121Z,996.41
2019-06-20T04:41:55.106Z,996.38
2019-06-20T04:42:55.121Z,996.38
2019-06-20T04:43:55.083Z,996.35
2019-06-20T04:44:55.113Z,996.38
2019-06-20T04:45:55.067Z,996.38
2019-06-20T04:46:55.050Z,996.41
2019-06-20T04:47:55.039Z,996.42
2019-06-20T04:48:55.028Z,996.39
2019-06-20T04:49:55.036Z,996.50
2019-06-20T04:50:55.070Z,996.49
2019-06-20T04:51:54.995Z,996.51
2019-06-20T04:52:54.985Z,996.47
2019-06-20T04:53:55.017Z,996.44
2019-06-20T04:54:55.017Z,996.50
2019-06-20T04:55:54.949Z,996.50
2019-06-20T04:56:54.941Z,996.51
2019-06-20T04:57:54.979Z,996.55
2019-06-20T04:58:54.909Z,996.55
2019-06-20T04:59:54.900Z,996.51
2019-06-20T05:00:54.895Z,996.55
2019-06-20T05:01:54.882Z,996.56
2019-06-20T05:02:54.905Z,996.58
2019-06-20T05:03:54.858Z,996.57
2019-06-20T05:04:54.941Z,996.58
2019-06-20T05:05:54.837Z,996.56
2019-06-20T05:06:54.964Z,996.57
2019-06-20T05:07:54.809Z,996.56
2019-06-20T05:08:54.809Z,996.56
2019-06-20T05:09:54.779Z,996.57
2019-06-20T05:10:54.784Z,996.56
2019-06-20T05:11:54.761Z,996.59
2019-06-20T05:12:56.105Z,996.62
2019-06-20T05:13:54.773Z,996.60
2019-06-20T05:14:54.727Z,996.61
2019-06-20T05:15:54.706Z,996.62
2019-06-20T05:16:54.719Z,996.64
2019-06-20T05:17:54.751Z,996.66
2019-06-20T05:18:54.686Z,996.64
2019-06-20T05:19:54.670Z,996.61
2019-06-20T05:20:54.661Z,996.65
2019-06-20T05:21:54.658Z,996.65
2019-06-20T05:22:54.707Z,996.63
2019-06-20T05:23:54.644Z,996.62
2019-06-20T05:24:54.626Z,996.69
2019-06-20T05:25:54.606Z,996.69
2019-06-20T05:26:54.619Z,996.71
2019-06-20T05:27:54.624Z,996.67
2019-06-20T05:28:54.590Z,996.70
2019-06-20T05:29:54.597Z,996.72
2019-06-20T05:30:54.559Z,996.79
2019-06-20T05:31:54.549Z,996.74
2019-06-20T05:32:54.549Z,996.77
2019-06-20T05:33:54.523Z,996.73
2019-06-20T05:34:54.661Z,996.80
2019-06-20T05:35:54.502Z,996.79
2019-06-20T05:36:54.494Z,996.82
2019-06-20T05:37:54.478Z,996.79
2019-06-20T05:38:54.466Z,996.84
2019-06-20T05:39:54.458Z,996.82
2019-06-20T05:40:54.477Z,996.85
2019-06-20T05:41:54.447Z,996.84
2019-06-20T05:42:54.494Z,996.90
2019-06-20T05:43:54.411Z,996.91
2019-06-20T05:44:54.402Z,996.92
2019-06-20T05:46:08.243Z,996.96
2019-06-20T05:47:08.500Z,996.96
2019-06-20T05:47:54.367Z,996.95
2019-06-20T05:48:54.370Z,996.95
2019-06-20T05:49:55.022Z,996.95
2019-06-20T05:50:54.342Z,996.97
2019-06-20T05:51:54.331Z,996.94
2019-06-20T05:52:54.348Z,996.89
2019-06-20T05:53:54.284Z,996.90
2019-06-20T05:54:54.292Z,996.91
2019-06-20T05:55:54.288Z,996.90
2019-06-20T05:56:54.300Z,996.85
2019-06-20T05:57:54.264Z,996.90
2019-06-20T05:58:54.250Z,996.87
2019-06-20T05:59:54.278Z,996.92
2019-06-20T06:00:54.225Z,996.92
2019-06-20T06:01:56.381Z,996.92
2019-06-20T06:02:54.203Z,996.94
2019-06-20T06:03:54.199Z,996.96
2019-06-20T06:04:54.190Z,996.94
2019-06-20T06:05:54.676Z,996.91
2019-06-20T06:06:54.194Z,997.01
2019-06-20T06:07:54.297Z,996.94
2019-06-20T06:08:54.220Z,997.00
2019-06-20T06:09:54.194Z,996.99
2019-06-20T06:10:54.120Z,997.00
2019-06-20T06:11:54.113Z,996.99
2019-06-20T06:12:54.108Z,996.97
2019-06-20T06:13:54.146Z,996.98
2019-06-20T06:14:54.138Z,996.99
2019-06-20T06:15:55.057Z,996.99
2019-06-20T06:16:54.277Z,996.97
2019-06-20T06:17:54.049Z,996.98
2019-06-20T06:18:55.073Z,997.02
2019-06-20T06:19:54.032Z,997.01
2019-06-20T06:20:54.006Z,996.98
2019-06-20T06:21:54.001Z,997.01
2019-06-20T06:22:53.975Z,996.99
2019-06-20T06:23:53.983Z,996.98
2019-06-20T06:24:55.713Z,997.00
2019-06-20T06:25:54.087Z,997.01
2019-06-20T06:26:53.953Z,997.03
2019-06-20T06:27:53.936Z,997.03
2019-06-20T06:28:54.625Z,996.99
2019-06-20T06:29:54.085Z,996.99
2019-06-20T06:30:53.918Z,997.01
2019-06-20T06:31:53.927Z,997.05
2019-06-20T06:32:53.881Z,996.98
2019-06-20T06:33:53.939Z,997.07
2019-06-20T06:34:53.854Z,997.11
2019-06-20T06:35:53.853Z,997.08
2019-06-20T06:36:53.835Z,997.06
2019-06-20T06:37:53.919Z,997.09
2019-06-20T06:38:53.816Z,997.15
2019-06-20T06:39:53.829Z,997.12
2019-06-20T06:40:53.791Z,997.13
2019-06-20T06:41:53.786Z,997.20
2019-06-20T06:42:53.802Z,997.18
2019-06-20T06:43:53.762Z,997.20
2019-06-20T06:44:53.738Z,997.15
2019-06-20T06:45:53.744Z,997.18
2019-06-20T06:46:59.324Z,997.22
2019-06-20T06:47:53.726Z,997.19
2019-06-20T06:48:53.711Z,997.18
2019-06-20T06:49:53.701Z,997.20
2019-06-20T06:50:53.712Z,997.23
2019-06-20T06:51:53.710Z,997.22
2019-06-20T06:52:53.692Z,997.23
2019-06-20T06:53:53.679Z,997.25
2019-06-20T06:54:53.676Z,997.30
2019-06-20T06:55:53.630Z,997.32
2019-06-20T06:56:53.638Z,997.31
2019-06-20T06:57:53.653Z,997.39
2019-06-20T06:58:53.611Z,997.34
2019-06-20T06:59:53.609Z,997.34
2019-06-20T07:00:54.566Z,997.35
2019-06-20T07:01:54.149Z,997.36
2019-06-20T07:02:53.612Z,997.33
2019-06-20T07:03:53.625Z,997.38
2019-06-20T07:04:53.536Z,997.38
2019-06-20T07:05:53.535Z,997.41
2019-06-20T07:06:53.519Z,997.42
2019-06-20T07:07:53.574Z,997.47
2019-06-20T07:08:53.497Z,997.44
2019-06-20T07:09:53.502Z,997.50
2019-06-20T07:10:53.471Z,997.51
2019-06-20T07:11:53.565Z,997.53
2019-06-20T07:12:53.456Z,997.49
2019-06-20T07:13:53.470Z,997.52
2019-06-20T07:14:54.173Z,997.48
2019-06-20T07:15:53.430Z,997.51
2019-06-20T07:17:00.221Z,997.54
2019-06-20T07:17:53.434Z,997.55
2019-06-20T07:18:53.398Z,997.53
2019-06-20T07:19:53.393Z,997.54
2019-06-20T07:20:53.375Z,997.57
2019-06-20T07:21:53.391Z,997.57
2019-06-20T07:22:53.354Z,997.55
2019-06-20T07:23:53.326Z,997.57
2019-06-20T07:24:53.351Z,997.52
2019-06-20T07:25:53.345Z,997.56
2019-06-20T07:26:53.332Z,997.58
2019-06-20T07:27:53.318Z,997.61
2019-06-20T07:28:53.274Z,997.60
2019-06-20T07:29:53.280Z,997.58
2019-06-20T07:30:53.270Z,997.55
2019-06-20T07:31:53.271Z,997.56
2019-06-20T07:32:53.271Z,997.55
2019-06-20T07:33:53.238Z,997.56
2019-06-20T07:34:53.297Z,997.54
2019-06-20T07:35:53.209Z,997.55
2019-06-20T07:36:53.218Z,997.54
2019-06-20T07:37:53.323Z,997.53
2019-06-20T07:38:53.191Z,997.52
2019-06-20T07:39:53.177Z,997.44
2019-06-20T07:40:53.149Z,997.54
2019-06-20T07:41:53.155Z,997.44
2019-06-20T07:42:53.139Z,997.46
2019-06-20T07:43:53.207Z,997.50
2019-06-20T07:44:53.125Z,997.54
2019-06-20T07:46:02.714Z,997.58
2019-06-20T07:46:53.793Z,997.57
2019-06-20T07:47:53.098Z,997.61
2019-06-20T07:48:53.146Z,997.65
2019-06-20T07:49:53.087Z,997.65
2019-06-20T07:50:53.069Z,997.68
2019-06-20T07:51:53.041Z,997.65
2019-06-20T07:53:01.857Z,997.68
2019-06-20T07:53:53.486Z,997.73
2019-06-20T07:54:53.049Z,997.74
2019-06-20T07:55:52.994Z,997.71
2019-06-20T07:56:52.996Z,997.72
2019-06-20T07:57:53.031Z,997.77
2019-06-20T07:58:52.997Z,997.76
2019-06-20T07:59:53.102Z,997.71
2019-06-20T08:00:52.976Z,997.73
2019-06-20T08:01:52.952Z,997.72
2019-06-20T08:02:52.928Z,997.73
2019-06-20T08:03:52.931Z,997.73
2019-06-20T08:04:52.912Z,997.69
2019-06-20T08:05:52.937Z,997.66
2019-06-20T08:06:52.908Z,997.68
2019-06-20T08:07:53.651Z,997.68
2019-06-20T08:08:52.870Z,997.74
2019-06-20T08:09:52.861Z,997.74
2019-06-20T08:10:52.881Z,997.74
2019-06-20T08:11:52.927Z,997.76
2019-06-20T08:12:52.826Z,997.81
2019-06-20T08:13:52.822Z,997.81
2019-06-20T08:14:52.821Z,997.80
2019-06-20T08:15:52.812Z,997.82
2019-06-20T08:16:52.926Z,997.82
2019-06-20T08:17:52.785Z,997.84
2019-06-20T08:18:52.764Z,997.83
2019-06-20T08:19:52.794Z,997.81
2019-06-20T08:20:52.763Z,997.82
2019-06-20T08:21:52.747Z,997.82
2019-06-20T08:22:52.774Z,997.86
2019-06-20T08:23:54.641Z,997.80
2019-06-20T08:24:53.806Z,997.78
2019-06-20T08:25:52.759Z,997.79
2019-06-20T08:26:52.706Z,997.82
2019-06-20T08:27:52.747Z,997.80
2019-06-20T08:29:07.333Z,997.76
2019-06-20T08:29:52.659Z,997.83
2019-06-20T08:30:52.685Z,997.83
2019-06-20T08:31:52.642Z,997.85
2019-06-20T08:32:52.663Z,997.88
2019-06-20T08:33:52.631Z,997.87
2019-06-20T08:34:52.630Z,997.90
2019-06-20T08:35:52.620Z,997.93
2019-06-20T08:36:52.645Z,997.90
2019-06-20T08:37:52.864Z,997.93
2019-06-20T08:38:52.654Z,997.98
2019-06-20T08:39:52.570Z,998.00
2019-06-20T08:40:52.565Z,998.01
2019-06-20T08:41:52.551Z,997.96
2019-06-20T08:42:52.763Z,997.99
2019-06-20T08:43:52.528Z,997.97
2019-06-20T08:44:52.553Z,997.97
2019-06-20T08:45:52.541Z,997.95
2019-06-20T08:46:52.511Z,997.92
2019-06-20T08:47:52.490Z,998.02
2019-06-20T08:48:52.478Z,997.99
2019-06-20T08:49:52.477Z,997.97
2019-06-20T08:50:52.483Z,998.00
2019-06-20T08:51:52.486Z,998.00
2019-06-20T08:52:52.464Z,998.02
2019-06-20T08:53:52.450Z,998.03
2019-06-20T08:54:52.434Z,998.09
2019-06-20T08:55:52.548Z,998.05
2019-06-20T08:56:52.543Z,998.04
2019-06-20T08:57:52.397Z,998.06
2019-06-20T08:58:52.392Z,998.09
2019-06-20T08:59:52.401Z,998.08
2019-06-20T09:00:52.394Z,998.14
2019-06-20T09:01:52.780Z,998.14
2019-06-20T09:02:54.054Z,998.19
2019-06-20T09:03:53.989Z,998.18
2019-06-20T09:04:54.822Z,998.18
2019-06-20T09:05:54.901Z,998.17
2019-06-20T09:06:53.978Z,998.18
2019-06-20T09:07:54.806Z,998.20
2019-06-20T09:08:53.822Z,998.24
2019-06-20T09:09:52.964Z,998.23
2019-06-20T09:10:54.106Z,998.22
2019-06-20T09:11:52.309Z,998.25
2019-06-20T09:12:53.656Z,998.26
2019-06-20T09:13:53.768Z,998.26
2019-06-20T09:14:52.390Z,998.29
2019-06-20T09:15:53.342Z,998.26
2019-06-20T09:16:52.333Z,998.24
2019-06-20T09:17:54.092Z,998.30
2019-06-20T09:18:53.467Z,998.28
2019-06-20T09:19:52.895Z,998.31
2019-06-20T09:20:54.002Z,998.33
2019-06-20T09:21:53.040Z,998.38
2019-06-20T09:22:52.304Z,998.39
2019-06-20T09:23:53.817Z,998.39
2019-06-20T09:24:53.314Z,998.35
2019-06-20T09:25:52.313Z,998.37
2019-06-20T09:26:52.829Z,998.38
2019-06-20T09:27:53.292Z,998.37
2019-06-20T09:28:52.687Z,998.44
2019-06-20T09:29:53.264Z,998.36
2019-06-20T09:30:53.554Z,998.35
2019-06-20T09:31:53.766Z,998.37
2019-06-20T09:32:53.623Z,998.33
2019-06-20T09:33:52.634Z,998.35
2019-06-20T09:34:53.069Z,998.35
2019-06-20T09:35:52.688Z,998.31
2019-06-20T09:36:53.645Z,998.33
2019-06-20T09:37:53.335Z,998.32
2019-06-20T09:38:52.477Z,998.37
2019-06-20T09:39:53.133Z,998.34
2019-06-20T09:40:53.039Z,998.36
2019-06-20T09:41:52.685Z,998.34
2019-06-20T09:42:52.948Z,998.33
2019-06-20T09:43:52.719Z,998.43
2019-06-20T09:44:52.613Z,998.42
2019-06-20T09:45:53.125Z,998.42
2019-06-20T09:46:52.452Z,998.41
2019-06-20T09:47:52.253Z,998.45
2019-06-20T09:48:52.757Z,998.43
2019-06-20T09:49:54.106Z,998.42
2019-06-20T09:50:53.001Z,998.42
2019-06-20T09:51:52.185Z,998.40
2019-06-20T09:52:53.168Z,998.35
2019-06-20T09:53:51.968Z,998.36
2019-06-20T09:54:51.928Z,998.34
2019-06-20T09:55:51.937Z,998.35
2019-06-20T09:56:54.700Z,998.31
2019-06-20T09:57:52.019Z,998.29
2019-06-20T09:58:53.129Z,998.29
2019-06-20T10:00:03.282Z,998.46
2019-06-20T10:00:52.871Z,998.35
2019-06-20T10:01:53.424Z,998.33
2019-06-20T10:02:53.886Z,998.32
2019-06-20T10:03:52.459Z,998.37
2019-06-20T10:04:52.368Z,998.35
2019-06-20T10:05:52.442Z,998.49
2019-06-20T10:06:52.670Z,998.32
2019-06-20T10:07:52.313Z,998.38
2019-06-20T10:08:52.371Z,998.38
2019-06-20T10:09:52.091Z,998.38
2019-06-20T10:10:52.414Z,998.44
2019-06-20T10:11:51.978Z,998.38
2019-06-20T10:12:51.894Z,998.44
2019-06-20T10:13:52.244Z,998.41
2019-06-20T10:14:51.820Z,998.34
2019-06-20T10:15:51.822Z,998.33
2019-06-20T10:16:53.986Z,998.37
2019-06-20T10:17:51.793Z,998.39
2019-06-20T10:18:52.169Z,998.48
2019-06-20T10:19:52.082Z,998.60
2019-06-20T10:20:53.021Z,998.51
2019-06-20T10:21:51.999Z,998.57
2019-06-20T10:22:53.005Z,998.65
2019-06-20T10:23:51.991Z,998.59
2019-06-20T10:24:51.747Z,998.62
2019-06-20T10:25:51.762Z,998.63
2019-06-20T10:26:51.767Z,998.69
2019-06-20T10:27:51.758Z,998.65
2019-06-20T10:28:53.023Z,998.67
2019-06-20T10:29:53.437Z,998.67
2019-06-20T10:30:51.712Z,998.78
2019-06-20T10:31:53.114Z,998.75
2019-06-20T10:32:53.081Z,998.82
2019-06-20T10:33:52.530Z,998.84
2019-06-20T10:34:52.726Z,998.84
2019-06-20T10:35:52.615Z,998.87
2019-06-20T10:36:52.667Z,998.94
2019-06-20T10:37:52.963Z,998.93
2019-06-20T10:38:52.628Z,998.94
2019-06-20T10:39:52.122Z,998.89
2019-06-20T10:40:52.080Z,999.17
2019-06-20T10:41:52.347Z,999.43
2019-06-20T10:42:52.992Z,999.30
2019-06-20T10:43:51.808Z,998.93
2019-06-20T10:44:53.219Z,998.95
2019-06-20T10:45:52.611Z,998.94
2019-06-20T10:46:51.665Z,998.77
2019-06-20T10:47:52.866Z,998.91
2019-06-20T10:48:52.699Z,998.91
2019-06-20T10:49:51.982Z,998.83
2019-06-20T10:50:52.054Z,998.84
2019-06-20T10:51:51.936Z,998.79
2019-06-20T10:52:51.925Z,998.91
2019-06-20T10:53:51.652Z,998.93
2019-06-20T10:54:51.782Z,998.77
2019-06-20T10:55:51.686Z,998.98
2019-06-20T10:56:51.657Z,998.81
2019-06-20T10:57:52.007Z,998.76
2019-06-20T10:58:51.643Z,998.75
2019-06-20T10:59:51.635Z,998.78
2019-06-20T11:00:52.690Z,998.82
2019-06-20T11:01:51.651Z,998.83
2019-06-20T11:02:51.630Z,998.72
2019-06-20T11:03:51.631Z,998.75
2019-06-20T11:04:51.626Z,998.76
2019-06-20T11:05:51.621Z,998.77
2019-06-20T11:06:51.662Z,998.75
2019-06-20T11:07:51.628Z,998.81
2019-06-20T11:08:52.210Z,998.81
2019-06-20T11:09:51.735Z,998.83
2019-06-20T11:10:51.663Z,998.84
2019-06-20T11:11:51.618Z,998.86
2019-06-20T11:12:55.752Z,999.03
2019-06-20T11:13:51.594Z,998.83
2019-06-20T11:14:51.587Z,998.80
2019-06-20T11:15:51.717Z,999.27
2019-06-20T11:16:51.727Z,998.84
2019-06-20T11:17:51.574Z,999.16
2019-06-20T11:18:51.566Z,999.33
2019-06-20T11:19:51.570Z,999.29
2019-06-20T11:20:51.566Z,999.32
2019-06-20T11:21:51.564Z,999.27
2019-06-20T11:22:51.613Z,998.81
2019-06-20T11:23:51.572Z,998.88
2019-06-20T11:24:51.542Z,999.17
2019-06-20T11:25:51.549Z,999.15
2019-06-20T11:26:51.538Z,999.15
2019-06-20T11:27:51.668Z,999.26
2019-06-20T11:28:52.440Z,999.36
2019-06-20T11:29:51.530Z,999.41
2019-06-20T11:30:58.033Z,999.48
2019-06-20T11:31:51.563Z,999.46
2019-06-20T11:32:51.526Z,999.36
2019-06-20T11:33:51.535Z,999.48
2019-06-20T11:34:51.541Z,999.45
2019-06-20T11:35:51.645Z,999.47
2019-06-20T11:36:51.504Z,999.50
2019-06-20T11:37:51.547Z,998.89
2019-06-20T11:38:51.523Z,998.84
2019-06-20T11:39:51.542Z,999.51
2019-06-20T11:40:51.506Z,999.44
2019-06-20T11:41:51.508Z,999.42
2019-06-20T11:42:51.519Z,999.34
2019-06-20T11:43:51.504Z,999.00
2019-06-20T11:44:51.531Z,998.88
2019-06-20T11:45:51.505Z,998.88
2019-06-20T11:46:51.505Z,998.83
2019-06-20T11:47:51.518Z,998.79
2019-06-20T11:48:51.505Z,998.78
2019-06-20T11:49:51.507Z,998.73
2019-06-20T11:50:52.280Z,998.70
2019-06-20T11:51:51.512Z,998.70
2019-06-20T11:52:51.523Z,998.76
2019-06-20T11:53:51.517Z,998.73
2019-06-20T11:54:51.500Z,998.75
2019-06-20T11:55:51.502Z,998.75
2019-06-20T11:56:51.500Z,998.70
2019-06-20T11:57:51.484Z,998.75
2019-06-20T11:58:51.536Z,998.90
2019-06-20T11:59:51.491Z,998.71
2019-06-20T12:01:03.167Z,998.65
2019-06-20T12:01:51.512Z,998.66
2019-06-20T12:02:51.573Z,998.65
2019-06-20T12:03:51.520Z,998.65
2019-06-20T12:04:51.506Z,998.73
2019-06-20T12:05:51.477Z,998.72
2019-06-20T12:06:51.666Z,998.62
2019-06-20T12:07:51.504Z,998.52
2019-06-20T12:08:51.446Z,998.54
2019-06-20T12:09:51.439Z,998.57
2019-06-20T12:10:51.466Z,998.55
2019-06-20T12:11:51.442Z,998.53
2019-06-20T12:12:51.578Z,998.48
2019-06-20T12:13:51.429Z,998.50
2019-06-20T12:14:51.558Z,998.51
2019-06-20T12:15:51.419Z,998.44
2019-06-20T12:16:51.420Z,998.49
2019-06-20T12:17:51.428Z,998.44
2019-06-20T12:18:51.416Z,998.47
2019-06-20T12:19:51.832Z,998.51
2019-06-20T12:20:51.484Z,998.53
2019-06-20T12:21:51.405Z,998.52
2019-06-20T12:22:51.386Z,998.50
2019-06-20T12:23:51.556Z,998.53
2019-06-20T12:24:51.379Z,998.50
2019-06-20T12:25:51.479Z,998.53
2019-06-20T12:26:51.534Z,998.49
2019-06-20T12:27:51.415Z,998.49
2019-06-20T12:28:51.355Z,998.47
2019-06-20T12:29:51.493Z,998.47
2019-06-20T12:30:51.336Z,998.47
2019-06-20T12:31:52.780Z,998.50
2019-06-20T12:32:51.325Z,998.57
2019-06-20T12:33:51.335Z,998.54
2019-06-20T12:34:51.329Z,998.52
2019-06-20T12:35:51.328Z,998.58
2019-06-20T12:36:51.322Z,998.57
2019-06-20T12:37:52.167Z,998.63
2019-06-20T12:38:51.297Z,998.62
2019-06-20T12:39:51.323Z,998.58
2019-06-20T12:40:51.457Z,998.53
2019-06-20T12:41:51.300Z,998.52
2019-06-20T12:42:51.455Z,998.47
2019-06-20T12:43:51.281Z,998.53
2019-06-20T12:44:56.296Z,998.54
2019-06-20T12:45:51.752Z,998.63
2019-06-20T12:46:53.081Z,998.60
2019-06-20T12:47:51.573Z,998.52
2019-06-20T12:48:51.248Z,998.52
2019-06-20T12:49:51.266Z,998.68
2019-06-20T12:50:51.241Z,998.53
2019-06-20T12:51:51.355Z,998.51
2019-06-20T12:52:51.211Z,998.50
2019-06-20T12:53:51.209Z,998.53
2019-06-20T12:54:51.465Z,998.54
2019-06-20T12:55:52.005Z,998.47
2019-06-20T12:56:51.190Z,998.55
2019-06-20T12:57:51.202Z,998.54
2019-06-20T12:58:51.777Z,998.56
2019-06-20T12:59:51.154Z,998.57
2019-06-20T13:00:56.299Z,998.63
2019-06-20T13:01:51.238Z,998.64
2019-06-20T13:02:51.151Z,998.68
2019-06-20T13:03:51.150Z,998.66
2019-06-20T13:04:51.132Z,998.63
2019-06-20T13:05:51.135Z,998.64
2019-06-20T13:06:51.156Z,998.70
2019-06-20T13:07:51.108Z,998.62
2019-06-20T13:08:51.133Z,998.67
2019-06-20T13:09:51.093Z,998.64
2019-06-20T13:10:51.085Z,998.62
2019-06-20T13:11:51.099Z,998.68
2019-06-20T13:12:51.633Z,998.61
2019-06-20T13:13:51.076Z,998.61
2019-06-20T13:14:51.066Z,998.62
2019-06-20T13:15:51.058Z,998.58
2019-06-20T13:16:51.109Z,998.59
2019-06-20T13:17:51.290Z,998.59
2019-06-20T13:18:51.024Z,998.58
2019-06-20T13:19:51.010Z,998.57
2019-06-20T13:20:51.009Z,998.57
2019-06-20T13:21:51.000Z,998.55
2019-06-20T13:22:51.140Z,998.52
2019-06-20T13:23:50.993Z,998.52
2019-06-20T13:24:50.984Z,998.57
2019-06-20T13:25:50.969Z,998.58
2019-06-20T13:26:50.979Z,998.57
2019-06-20T13:27:50.980Z,998.55
2019-06-20T13:29:03.216Z,998.57
2019-06-20T13:29:50.955Z,998.52
2019-06-20T13:30:52.236Z,998.55